sensor_id;sensor_type;location;lat;lon;timestamp;P1;durP1;ratioP1;P2;durP2;ratioP2
46757;SDS011;32509;47.750;-3.396;2022-09-12T00:00:41;1.95;;;0.80;;
46757;SDS011;32509;47.750;-3.396;2022-09-12T00:03:07;1.50;;;0.77;;
46757;SDS011;32509;47.750;-3.396;2022-09-12T00:05:33;2.72;;;0.70;;
46757;SDS011;32509;47.750;-3.396;2022-09-12T00:07:59;0.68;;;0.60;;
46757;SDS011;32509;47.750;-3.396;2022-09-12T00:10:25;1.77;;;0.70;;
46757;SDS011;32509;47.750;-3.396;2022-09-12T00:12:51;0.70;;;0.55;;
46757;SDS011;32509;47.750;-3.396;2022-09-12T00:15:18;1.10;;;0.90;;
46757;SDS011;32509;47.750;-3.396;2022-09-12T00:17:44;2.55;;;1.25;;
46757;SDS011;32509;47.750;-3.396;2022-09-12T00:20:10;1.05;;;0.60;;
46757;SDS011;32509;47.750;-3.396;2022-09-12T00:22:36;1.60;;;1.08;;
46757;SDS011;32509;47.750;-3.396;2022-09-12T00:25:03;1.15;;;0.82;;
46757;SDS011;32509;47.750;-3.396;2022-09-12T00:27:29;1.70;;;0.88;;
46757;SDS011;32509;47.750;-3.396;2022-09-12T00:29:55;1.27;;;0.60;;
46757;SDS011;32509;47.750;-3.396;2022-09-12T00:32:21;0.82;;;0.60;;
46757;SDS011;32509;47.750;-3.396;2022-09-12T00:34:48;1.13;;;0.65;;
46757;SDS011;32509;47.750;-3.396;2022-09-12T00:37:14;1.45;;;0.70;;
46757;SDS011;32509;47.750;-3.396;2022-09-12T00:39:40;1.73;;;0.95;;
46757;SDS011;32509;47.750;-3.396;2022-09-12T00:42:07;2.58;;;0.90;;
46757;SDS011;32509;47.750;-3.396;2022-09-12T00:49:47;1.70;;;0.80;;
46757;SDS011;32509;47.750;-3.396;2022-09-12T00:52:25;1.15;;;0.60;;
46757;SDS011;32509;47.750;-3.396;2022-09-12T00:57:36;2.20;;;1.30;;
46757;SDS011;32509;47.750;-3.396;2022-09-12T01:00:09;1.75;;;1.05;;
46757;SDS011;32509;47.750;-3.396;2022-09-12T01:02:38;0.98;;;0.50;;
46757;SDS011;32509;47.750;-3.396;2022-09-12T01:05:04;1.95;;;0.90;;
46757;SDS011;32509;47.750;-3.396;2022-09-12T01:07:31;2.60;;;0.73;;
46757;SDS011;32509;47.750;-3.396;2022-09-12T01:09:59;2.10;;;0.75;;
46757;SDS011;32509;47.750;-3.396;2022-09-12T01:12:25;1.30;;;1.00;;
46757;SDS011;32509;47.750;-3.396;2022-09-12T01:14:51;1.45;;;0.95;;
46757;SDS011;32509;47.750;-3.396;2022-09-12T01:17:17;1.48;;;0.70;;
46757;SDS011;32509;47.750;-3.396;2022-09-12T01:19:51;1.77;;;0.70;;
46757;SDS011;32509;47.750;-3.396;2022-09-12T01:30:40;2.72;;;1.05;;
46757;SDS011;32509;47.750;-3.396;2022-09-12T01:38:37;4.68;;;1.15;;
46757;SDS011;32509;47.750;-3.396;2022-09-12T01:46:02;3.90;;;0.70;;
46757;SDS011;32509;47.750;-3.396;2022-09-12T01:48:32;0.95;;;0.70;;
46757;SDS011;32509;47.750;-3.396;2022-09-12T01:51:12;1.50;;;0.63;;
46757;SDS011;32509;47.750;-3.396;2022-09-12T01:53:43;1.85;;;0.93;;
46757;SDS011;32509;47.750;-3.396;2022-09-12T01:56:15;0.85;;;0.85;;
46757;SDS011;32509;47.750;-3.396;2022-09-12T01:58:51;1.75;;;0.70;;
46757;SDS011;32509;47.750;-3.396;2022-09-12T02:03:47;2.65;;;0.80;;
46757;SDS011;32509;47.750;-3.396;2022-09-12T02:06:18;1.13;;;0.70;;
46757;SDS011;32509;47.750;-3.396;2022-09-12T02:08:56;2.05;;;0.75;;
46757;SDS011;32509;47.750;-3.396;2022-09-12T02:11:23;2.50;;;0.90;;
46757;SDS011;32509;47.750;-3.396;2022-09-12T02:13:53;1.20;;;0.70;;
46757;SDS011;32509;47.750;-3.396;2022-09-12T02:16:21;2.83;;;0.80;;
46757;SDS011;32509;47.750;-3.396;2022-09-12T02:18:49;1.90;;;0.80;;
46757;SDS011;32509;47.750;-3.396;2022-09-12T02:21:17;0.90;;;0.75;;
46757;SDS011;32509;47.750;-3.396;2022-09-12T02:23:45;1.55;;;1.05;;
46757;SDS011;32509;47.750;-3.396;2022-09-12T02:26:20;3.60;;;1.08;;
46757;SDS011;32509;47.750;-3.396;2022-09-12T02:28:48;1.20;;;0.65;;
46757;SDS011;32509;47.750;-3.396;2022-09-12T02:39:03;6.07;;;0.93;;
46757;SDS011;32509;47.750;-3.396;2022-09-12T02:41:29;1.23;;;0.80;;
46757;SDS011;32509;47.750;-3.396;2022-09-12T02:43:55;1.33;;;0.90;;
46757;SDS011;32509;47.750;-3.396;2022-09-12T02:46:23;0.85;;;0.70;;
46757;SDS011;32509;47.750;-3.396;2022-09-12T02:48:52;2.20;;;1.20;;
46757;SDS011;32509;47.750;-3.396;2022-09-12T02:51:19;2.53;;;0.80;;
46757;SDS011;32509;47.750;-3.396;2022-09-12T02:53:46;5.22;;;0.98;;
46757;SDS011;32509;47.750;-3.396;2022-09-12T02:56:17;1.48;;;1.13;;
46757;SDS011;32509;47.750;-3.396;2022-09-12T02:58:43;2.25;;;0.95;;
46757;SDS011;32509;47.750;-3.396;2022-09-12T03:07:19;6.50;;;0.85;;
46757;SDS011;32509;47.750;-3.396;2022-09-12T03:12:02;2.08;;;0.80;;
46757;SDS011;32509;47.750;-3.396;2022-09-12T03:22:12;7.75;;;1.40;;
46757;SDS011;32509;47.750;-3.396;2022-09-12T03:27:11;1.30;;;0.82;;
46757;SDS011;32509;47.750;-3.396;2022-09-12T03:29:38;1.80;;;0.82;;
46757;SDS011;32509;47.750;-3.396;2022-09-12T03:32:05;1.00;;;0.80;;
46757;SDS011;32509;47.750;-3.396;2022-09-12T03:34:32;1.15;;;1.00;;
46757;SDS011;32509;47.750;-3.396;2022-09-12T03:36:58;1.30;;;1.10;;
46757;SDS011;32509;47.750;-3.396;2022-09-12T03:39:24;0.70;;;0.70;;
46757;SDS011;32509;47.750;-3.396;2022-09-12T03:41:51;2.83;;;0.90;;
46757;SDS011;32509;47.750;-3.396;2022-09-12T03:44:17;2.08;;;0.73;;
46757;SDS011;32509;47.750;-3.396;2022-09-12T03:46:44;2.53;;;1.13;;
46757;SDS011;32509;47.750;-3.396;2022-09-12T03:49:10;2.38;;;0.90;;
46757;SDS011;32509;47.750;-3.396;2022-09-12T03:51:36;2.80;;;0.93;;
46757;SDS011;32509;47.750;-3.396;2022-09-12T03:54:03;2.05;;;1.10;;
46757;SDS011;32509;47.750;-3.396;2022-09-12T03:56:29;2.75;;;0.80;;
46757;SDS011;32509;47.750;-3.396;2022-09-12T03:58:55;2.05;;;0.90;;
46757;SDS011;32509;47.750;-3.396;2022-09-12T04:01:21;1.40;;;0.80;;
46757;SDS011;32509;47.750;-3.396;2022-09-12T04:03:48;1.35;;;1.10;;
46757;SDS011;32509;47.750;-3.396;2022-09-12T04:06:16;1.00;;;0.80;;
46757;SDS011;32509;47.750;-3.396;2022-09-12T04:08:42;2.08;;;0.77;;
46757;SDS011;32509;47.750;-3.396;2022-09-12T04:11:13;1.73;;;0.93;;
46757;SDS011;32509;47.750;-3.396;2022-09-12T04:13:40;1.05;;;0.73;;
46757;SDS011;32509;47.750;-3.396;2022-09-12T04:16:07;1.50;;;1.40;;
46757;SDS011;32509;47.750;-3.396;2022-09-12T04:18:34;0.80;;;0.70;;
46757;SDS011;32509;47.750;-3.396;2022-09-12T04:21:04;2.17;;;1.15;;
46757;SDS011;32509;47.750;-3.396;2022-09-12T04:23:31;0.80;;;0.75;;
46757;SDS011;32509;47.750;-3.396;2022-09-12T04:25:58;1.08;;;0.80;;
46757;SDS011;32509;47.750;-3.396;2022-09-12T04:28:25;1.30;;;0.73;;
46757;SDS011;32509;47.750;-3.396;2022-09-12T04:30:53;2.40;;;1.10;;
46757;SDS011;32509;47.750;-3.396;2022-09-12T04:33:19;1.90;;;1.00;;
46757;SDS011;32509;47.750;-3.396;2022-09-12T04:35:46;2.70;;;0.85;;
46757;SDS011;32509;47.750;-3.396;2022-09-12T04:38:12;1.92;;;0.80;;
46757;SDS011;32509;47.750;-3.396;2022-09-12T04:40:38;1.92;;;1.30;;
46757;SDS011;32509;47.750;-3.396;2022-09-12T04:43:04;2.13;;;0.95;;
46757;SDS011;32509;47.750;-3.396;2022-09-12T04:45:31;1.02;;;0.90;;
46757;SDS011;32509;47.750;-3.396;2022-09-12T04:47:57;1.60;;;1.05;;
46757;SDS011;32509;47.750;-3.396;2022-09-12T04:50:23;2.78;;;0.80;;
46757;SDS011;32509;47.750;-3.396;2022-09-12T04:52:49;3.30;;;1.30;;
46757;SDS011;32509;47.750;-3.396;2022-09-12T04:55:16;3.40;;;1.25;;
46757;SDS011;32509;47.750;-3.396;2022-09-12T04:57:42;2.25;;;1.00;;
46757;SDS011;32509;47.750;-3.396;2022-09-12T05:00:11;1.85;;;1.27;;
46757;SDS011;32509;47.750;-3.396;2022-09-12T05:02:41;2.33;;;1.08;;
46757;SDS011;32509;47.750;-3.396;2022-09-12T05:05:07;2.85;;;1.17;;
46757;SDS011;32509;47.750;-3.396;2022-09-12T05:07:34;3.70;;;1.70;;
46757;SDS011;32509;47.750;-3.396;2022-09-12T05:10:00;2.55;;;1.15;;
46757;SDS011;32509;47.750;-3.396;2022-09-12T05:12:28;2.67;;;1.10;;
46757;SDS011;32509;47.750;-3.396;2022-09-12T05:14:55;1.88;;;1.00;;
46757;SDS011;32509;47.750;-3.396;2022-09-12T05:17:21;1.95;;;1.13;;
46757;SDS011;32509;47.750;-3.396;2022-09-12T05:19:47;2.22;;;1.00;;
46757;SDS011;32509;47.750;-3.396;2022-09-12T05:22:13;3.65;;;1.17;;
46757;SDS011;32509;47.750;-3.396;2022-09-12T05:24:39;2.53;;;1.30;;
46757;SDS011;32509;47.750;-3.396;2022-09-12T05:27:07;2.05;;;0.80;;
46757;SDS011;32509;47.750;-3.396;2022-09-12T05:29:34;2.95;;;1.65;;
46757;SDS011;32509;47.750;-3.396;2022-09-12T05:32:00;2.38;;;1.35;;
46757;SDS011;32509;47.750;-3.396;2022-09-12T05:34:26;2.15;;;1.23;;
46757;SDS011;32509;47.750;-3.396;2022-09-12T05:36:52;3.72;;;1.23;;
46757;SDS011;32509;47.750;-3.396;2022-09-12T05:39:18;2.55;;;1.45;;
46757;SDS011;32509;47.750;-3.396;2022-09-12T05:41:44;2.35;;;1.30;;
46757;SDS011;32509;47.750;-3.396;2022-09-12T05:44:12;2.63;;;1.20;;
46757;SDS011;32509;47.750;-3.396;2022-09-12T05:46:42;3.00;;;1.13;;
46757;SDS011;32509;47.750;-3.396;2022-09-12T05:49:11;1.90;;;1.40;;
46757;SDS011;32509;47.750;-3.396;2022-09-12T05:51:38;2.50;;;1.27;;
46757;SDS011;32509;47.750;-3.396;2022-09-12T05:54:06;4.07;;;1.30;;
46757;SDS011;32509;47.750;-3.396;2022-09-12T05:56:33;2.53;;;1.20;;
46757;SDS011;32509;47.750;-3.396;2022-09-12T05:59:03;1.58;;;1.05;;
46757;SDS011;32509;47.750;-3.396;2022-09-12T06:01:30;5.55;;;1.70;;
46757;SDS011;32509;47.750;-3.396;2022-09-12T06:03:57;1.92;;;1.42;;
46757;SDS011;32509;47.750;-3.396;2022-09-12T06:06:25;2.58;;;2.08;;
46757;SDS011;32509;47.750;-3.396;2022-09-12T06:08:52;1.50;;;1.40;;
46757;SDS011;32509;47.750;-3.396;2022-09-12T06:11:20;2.42;;;1.83;;
46757;SDS011;32509;47.750;-3.396;2022-09-12T06:13:47;4.07;;;1.33;;
46757;SDS011;32509;47.750;-3.396;2022-09-12T06:16:16;2.88;;;1.33;;
46757;SDS011;32509;47.750;-3.396;2022-09-12T06:18:53;2.35;;;1.23;;
46757;SDS011;32509;47.750;-3.396;2022-09-12T06:21:19;1.67;;;1.40;;
46757;SDS011;32509;47.750;-3.396;2022-09-12T06:23:46;1.88;;;1.30;;
46757;SDS011;32509;47.750;-3.396;2022-09-12T06:26:13;2.42;;;1.48;;
46757;SDS011;32509;47.750;-3.396;2022-09-12T06:28:40;4.03;;;1.40;;
46757;SDS011;32509;47.750;-3.396;2022-09-12T06:31:08;3.60;;;1.58;;
46757;SDS011;32509;47.750;-3.396;2022-09-12T06:33:36;3.03;;;1.40;;
46757;SDS011;32509;47.750;-3.396;2022-09-12T06:36:05;2.97;;;1.20;;
46757;SDS011;32509;47.750;-3.396;2022-09-12T06:38:32;1.58;;;1.25;;
46757;SDS011;32509;47.750;-3.396;2022-09-12T06:40:58;4.75;;;1.30;;
46757;SDS011;32509;47.750;-3.396;2022-09-12T06:43:26;3.90;;;1.00;;
46757;SDS011;32509;47.750;-3.396;2022-09-12T06:45:53;3.22;;;1.38;;
46757;SDS011;32509;47.750;-3.396;2022-09-12T06:48:20;3.92;;;1.33;;
46757;SDS011;32509;47.750;-3.396;2022-09-12T06:50:59;2.08;;;1.05;;
46757;SDS011;32509;47.750;-3.396;2022-09-12T06:53:26;2.00;;;1.05;;
46757;SDS011;32509;47.750;-3.396;2022-09-12T06:55:56;2.25;;;1.35;;
46757;SDS011;32509;47.750;-3.396;2022-09-12T06:58:23;4.65;;;1.38;;
46757;SDS011;32509;47.750;-3.396;2022-09-12T07:00:50;2.70;;;1.35;;
46757;SDS011;32509;47.750;-3.396;2022-09-12T07:03:16;2.58;;;1.10;;
46757;SDS011;32509;47.750;-3.396;2022-09-12T07:05:43;8.00;;;1.58;;
46757;SDS011;32509;47.750;-3.396;2022-09-12T07:08:09;2.10;;;1.02;;
46757;SDS011;32509;47.750;-3.396;2022-09-12T07:10:35;1.85;;;0.98;;
46757;SDS011;32509;47.750;-3.396;2022-09-12T07:13:02;1.77;;;1.10;;
46757;SDS011;32509;47.750;-3.396;2022-09-12T07:15:28;1.70;;;1.17;;
46757;SDS011;32509;47.750;-3.396;2022-09-12T07:17:54;2.03;;;1.10;;
46757;SDS011;32509;47.750;-3.396;2022-09-12T07:20:20;2.33;;;1.20;;
46757;SDS011;32509;47.750;-3.396;2022-09-12T07:22:47;1.38;;;0.93;;
46757;SDS011;32509;47.750;-3.396;2022-09-12T07:25:13;1.92;;;0.95;;
46757;SDS011;32509;47.750;-3.396;2022-09-12T07:27:39;2.40;;;0.90;;
46757;SDS011;32509;47.750;-3.396;2022-09-12T07:30:05;2.67;;;1.13;;
46757;SDS011;32509;47.750;-3.396;2022-09-12T07:32:33;2.15;;;1.13;;
46757;SDS011;32509;47.750;-3.396;2022-09-12T07:34:59;2.97;;;1.02;;
46757;SDS011;32509;47.750;-3.396;2022-09-12T07:37:25;2.60;;;1.00;;
46757;SDS011;32509;47.750;-3.396;2022-09-12T07:39:55;2.22;;;1.08;;
46757;SDS011;32509;47.750;-3.396;2022-09-12T07:42:21;1.40;;;0.90;;
46757;SDS011;32509;47.750;-3.396;2022-09-12T07:44:48;1.02;;;0.85;;
46757;SDS011;32509;47.750;-3.396;2022-09-12T07:47:16;1.75;;;1.00;;
46757;SDS011;32509;47.750;-3.396;2022-09-12T07:49:42;1.02;;;0.90;;
46757;SDS011;32509;47.750;-3.396;2022-09-12T07:52:09;3.67;;;1.00;;
46757;SDS011;32509;47.750;-3.396;2022-09-12T07:54:35;2.15;;;1.02;;
46757;SDS011;32509;47.750;-3.396;2022-09-12T07:57:01;1.58;;;1.00;;
46757;SDS011;32509;47.750;-3.396;2022-09-12T07:59:27;1.08;;;0.98;;
46757;SDS011;32509;47.750;-3.396;2022-09-12T08:01:53;2.67;;;0.95;;
46757;SDS011;32509;47.750;-3.396;2022-09-12T08:04:19;2.58;;;0.95;;
46757;SDS011;32509;47.750;-3.396;2022-09-12T08:06:46;2.78;;;1.13;;
46757;SDS011;32509;47.750;-3.396;2022-09-12T08:09:12;1.55;;;1.13;;
46757;SDS011;32509;47.750;-3.396;2022-09-12T08:11:41;2.70;;;1.20;;
46757;SDS011;32509;47.750;-3.396;2022-09-12T08:14:08;2.55;;;1.40;;
46757;SDS011;32509;47.750;-3.396;2022-09-12T08:16:34;3.08;;;1.40;;
46757;SDS011;32509;47.750;-3.396;2022-09-12T08:19:01;4.03;;;1.13;;
46757;SDS011;32509;47.750;-3.396;2022-09-12T08:21:28;2.35;;;1.27;;
46757;SDS011;32509;47.750;-3.396;2022-09-12T08:23:55;6.13;;;1.42;;
46757;SDS011;32509;47.750;-3.396;2022-09-12T08:26:22;0.82;;;0.82;;
46757;SDS011;32509;47.750;-3.396;2022-09-12T08:28:48;2.38;;;1.30;;
46757;SDS011;32509;47.750;-3.396;2022-09-12T08:31:15;1.92;;;1.00;;
46757;SDS011;32509;47.750;-3.396;2022-09-12T08:33:42;2.83;;;0.90;;
46757;SDS011;32509;47.750;-3.396;2022-09-12T08:36:15;2.45;;;1.15;;
46757;SDS011;32509;47.750;-3.396;2022-09-12T08:38:42;2.40;;;0.88;;
46757;SDS011;32509;47.750;-3.396;2022-09-12T08:41:10;2.08;;;1.02;;
46757;SDS011;32509;47.750;-3.396;2022-09-12T08:48:53;1.90;;;1.10;;
46757;SDS011;32509;47.750;-3.396;2022-09-12T08:51:20;2.97;;;0.77;;
46757;SDS011;32509;47.750;-3.396;2022-09-12T08:53:48;0.60;;;0.60;;
46757;SDS011;32509;47.750;-3.396;2022-09-12T08:56:15;3.63;;;3.30;;
46757;SDS011;32509;47.750;-3.396;2022-09-12T08:58:42;2.28;;;1.88;;
46757;SDS011;32509;47.750;-3.396;2022-09-12T09:09:07;1.90;;;1.10;;
46757;SDS011;32509;47.750;-3.396;2022-09-12T09:14:24;2.03;;;0.90;;
46757;SDS011;32509;47.750;-3.396;2022-09-12T09:17:12;2.90;;;1.10;;
46757;SDS011;32509;47.750;-3.396;2022-09-12T09:19:41;2.15;;;0.80;;
46757;SDS011;32509;47.750;-3.396;2022-09-12T09:22:16;3.53;;;1.55;;
46757;SDS011;32509;47.750;-3.396;2022-09-12T09:24:44;1.98;;;0.93;;
46757;SDS011;32509;47.750;-3.396;2022-09-12T09:27:26;1.48;;;0.70;;
46757;SDS011;32509;47.750;-3.396;2022-09-12T09:29:54;4.88;;;0.70;;
46757;SDS011;32509;47.750;-3.396;2022-09-12T09:32:31;1.63;;;1.00;;
46757;SDS011;32509;47.750;-3.396;2022-09-12T09:35:00;5.07;;;0.80;;
46757;SDS011;32509;47.750;-3.396;2022-09-12T09:37:37;0.90;;;0.90;;
46757;SDS011;32509;47.750;-3.396;2022-09-12T09:42:53;1.23;;;0.95;;
46757;SDS011;32509;47.750;-3.396;2022-09-12T09:45:23;2.88;;;0.80;;
46757;SDS011;32509;47.750;-3.396;2022-09-12T09:50:36;0.80;;;0.63;;
46757;SDS011;32509;47.750;-3.396;2022-09-12T09:53:03;2.10;;;1.00;;
46757;SDS011;32509;47.750;-3.396;2022-09-12T09:55:33;2.15;;;0.90;;
46757;SDS011;32509;47.750;-3.396;2022-09-12T09:58:03;1.48;;;0.80;;
46757;SDS011;32509;47.750;-3.396;2022-09-12T10:00:33;7.53;;;0.98;;
46757;SDS011;32509;47.750;-3.396;2022-09-12T10:03:23;1.15;;;0.90;;
46757;SDS011;32509;47.750;-3.396;2022-09-12T10:05:47;2.95;;;1.50;;
46757;SDS011;32509;47.750;-3.396;2022-09-12T10:08:47;2.08;;;1.05;;
46757;SDS011;32509;47.750;-3.396;2022-09-12T10:13:41;1.75;;;0.75;;
46757;SDS011;32509;47.750;-3.396;2022-09-12T10:18:44;2.88;;;0.88;;
46757;SDS011;32509;47.750;-3.396;2022-09-12T10:23:43;2.67;;;1.02;;
46757;SDS011;32509;47.750;-3.396;2022-09-12T10:26:10;0.90;;;0.90;;
46757;SDS011;32509;47.750;-3.396;2022-09-12T10:28:38;1.17;;;0.85;;
46757;SDS011;32509;47.750;-3.396;2022-09-12T10:31:09;1.45;;;0.80;;
46757;SDS011;32509;47.750;-3.396;2022-09-12T10:33:43;2.72;;;1.05;;
46757;SDS011;32509;47.750;-3.396;2022-09-12T10:36:11;1.52;;;0.90;;
46757;SDS011;32509;47.750;-3.396;2022-09-12T10:38:38;1.27;;;0.80;;
46757;SDS011;32509;47.750;-3.396;2022-09-12T10:41:13;0.88;;;0.88;;
46757;SDS011;32509;47.750;-3.396;2022-09-12T10:43:39;1.42;;;0.98;;
46757;SDS011;32509;47.750;-3.396;2022-09-12T10:48:38;3.50;;;0.80;;
46757;SDS011;32509;47.750;-3.396;2022-09-12T10:51:04;1.65;;;0.63;;
46757;SDS011;32509;47.750;-3.396;2022-09-12T10:53:31;1.83;;;0.77;;
46757;SDS011;32509;47.750;-3.396;2022-09-12T10:56:11;1.67;;;0.70;;
46757;SDS011;32509;47.750;-3.396;2022-09-12T11:19:37;1.02;;;0.60;;
46757;SDS011;32509;47.750;-3.396;2022-09-12T11:27:07;1.73;;;0.85;;
46757;SDS011;32509;47.750;-3.396;2022-09-12T11:32:12;2.45;;;0.60;;
46757;SDS011;32509;47.750;-3.396;2022-09-12T11:37:29;0.75;;;0.73;;
46757;SDS011;32509;47.750;-3.396;2022-09-12T11:40:01;1.27;;;0.63;;
46757;SDS011;32509;47.750;-3.396;2022-09-12T11:42:32;2.00;;;0.73;;
46757;SDS011;32509;47.750;-3.396;2022-09-12T11:45:15;1.00;;;0.90;;
46757;SDS011;32509;47.750;-3.396;2022-09-12T11:47:46;2.83;;;0.90;;
46757;SDS011;32509;47.750;-3.396;2022-09-12T11:50:22;6.13;;;0.90;;
46757;SDS011;32509;47.750;-3.396;2022-09-12T11:52:50;1.95;;;1.08;;
46757;SDS011;32509;47.750;-3.396;2022-09-12T11:55:18;1.80;;;0.70;;
46757;SDS011;32509;47.750;-3.396;2022-09-12T11:57:50;1.40;;;0.82;;
46757;SDS011;32509;47.750;-3.396;2022-09-12T12:00:21;1.35;;;0.68;;
46757;SDS011;32509;47.750;-3.396;2022-09-12T12:08:00;2.50;;;0.95;;
46757;SDS011;32509;47.750;-3.396;2022-09-12T12:10:30;2.17;;;0.80;;
46757;SDS011;32509;47.750;-3.396;2022-09-12T12:12:59;3.10;;;0.60;;
46757;SDS011;32509;47.750;-3.396;2022-09-12T12:15:26;1.05;;;0.70;;
46757;SDS011;32509;47.750;-3.396;2022-09-12T12:18:06;3.45;;;0.70;;
46757;SDS011;32509;47.750;-3.396;2022-09-12T12:20:33;1.30;;;0.70;;
46757;SDS011;32509;47.750;-3.396;2022-09-12T12:22:59;1.23;;;0.63;;
46757;SDS011;32509;47.750;-3.396;2022-09-12T12:25:36;1.15;;;0.90;;
46757;SDS011;32509;47.750;-3.396;2022-09-12T12:28:04;1.13;;;0.60;;
46757;SDS011;32509;47.750;-3.396;2022-09-12T12:35:44;1.92;;;0.70;;
46757;SDS011;32509;47.750;-3.396;2022-09-12T12:38:35;3.13;;;0.93;;
46757;SDS011;32509;47.750;-3.396;2022-09-12T12:43:44;4.47;;;0.85;;
46757;SDS011;32509;47.750;-3.396;2022-09-12T12:46:14;1.25;;;0.93;;
46757;SDS011;32509;47.750;-3.396;2022-09-12T12:51:22;1.05;;;1.02;;
46757;SDS011;32509;47.750;-3.396;2022-09-12T12:53:51;4.10;;;0.90;;
46757;SDS011;32509;47.750;-3.396;2022-09-12T12:56:40;1.25;;;0.85;;
46757;SDS011;32509;47.750;-3.396;2022-09-12T12:59:18;0.95;;;0.60;;
46757;SDS011;32509;47.750;-3.396;2022-09-12T13:01:46;2.22;;;0.70;;
46757;SDS011;32509;47.750;-3.396;2022-09-12T13:04:17;0.60;;;0.60;;
46757;SDS011;32509;47.750;-3.396;2022-09-12T13:06:44;2.40;;;0.88;;
46757;SDS011;32509;47.750;-3.396;2022-09-12T13:09:25;1.77;;;0.93;;
46757;SDS011;32509;47.750;-3.396;2022-09-12T13:12:01;1.70;;;1.10;;
46757;SDS011;32509;47.750;-3.396;2022-09-12T13:14:48;2.90;;;1.13;;
46757;SDS011;32509;47.750;-3.396;2022-09-12T13:17:21;1.25;;;0.80;;
46757;SDS011;32509;47.750;-3.396;2022-09-12T13:19:50;2.10;;;1.00;;
46757;SDS011;32509;47.750;-3.396;2022-09-12T13:22:16;2.35;;;1.13;;
46757;SDS011;32509;47.750;-3.396;2022-09-12T13:24:47;1.30;;;1.17;;
46757;SDS011;32509;47.750;-3.396;2022-09-12T13:27:20;4.40;;;1.17;;
46757;SDS011;32509;47.750;-3.396;2022-09-12T13:29:47;1.98;;;1.00;;
46757;SDS011;32509;47.750;-3.396;2022-09-12T13:32:14;0.82;;;0.75;;
46757;SDS011;32509;47.750;-3.396;2022-09-12T13:34:50;1.83;;;1.10;;
46757;SDS011;32509;47.750;-3.396;2022-09-12T13:42:39;5.18;;;1.73;;
46757;SDS011;32509;47.750;-3.396;2022-09-12T13:47:37;3.72;;;1.27;;
46757;SDS011;32509;47.750;-3.396;2022-09-12T13:50:05;3.47;;;1.40;;
46757;SDS011;32509;47.750;-3.396;2022-09-12T13:52:33;2.63;;;1.30;;
46757;SDS011;32509;47.750;-3.396;2022-09-12T13:55:00;1.75;;;1.42;;
46757;SDS011;32509;47.750;-3.396;2022-09-12T14:00:03;2.15;;;1.05;;
46757;SDS011;32509;47.750;-3.396;2022-09-12T14:02:33;0.80;;;0.80;;
46757;SDS011;32509;47.750;-3.396;2022-09-12T14:04:59;4.07;;;1.65;;
46757;SDS011;32509;47.750;-3.396;2022-09-12T14:07:33;4.35;;;1.23;;
46757;SDS011;32509;47.750;-3.396;2022-09-12T14:10:00;2.95;;;1.55;;
46757;SDS011;32509;47.750;-3.396;2022-09-12T14:12:31;2.83;;;1.55;;
46757;SDS011;32509;47.750;-3.396;2022-09-12T14:14:59;1.35;;;1.00;;
46757;SDS011;32509;47.750;-3.396;2022-09-12T14:17:35;3.53;;;1.60;;
46757;SDS011;32509;47.750;-3.396;2022-09-12T14:20:07;3.60;;;1.48;;
46757;SDS011;32509;47.750;-3.396;2022-09-12T14:22:37;2.38;;;1.33;;
46757;SDS011;32509;47.750;-3.396;2022-09-12T14:25:04;3.17;;;1.17;;
46757;SDS011;32509;47.750;-3.396;2022-09-12T14:27:39;3.22;;;1.55;;
46757;SDS011;32509;47.750;-3.396;2022-09-12T14:30:27;3.50;;;1.67;;
46757;SDS011;32509;47.750;-3.396;2022-09-12T14:33:44;3.55;;;1.73;;
46757;SDS011;32509;47.750;-3.396;2022-09-12T14:35:47;5.00;;;1.80;;
46757;SDS011;32509;47.750;-3.396;2022-09-12T14:40:47;4.85;;;2.10;;
46757;SDS011;32509;47.750;-3.396;2022-09-12T14:43:24;4.18;;;1.77;;
46757;SDS011;32509;47.750;-3.396;2022-09-12T14:45:53;3.40;;;1.92;;
46757;SDS011;32509;47.750;-3.396;2022-09-12T14:48:20;3.10;;;2.33;;
46757;SDS011;32509;47.750;-3.396;2022-09-12T14:50:50;4.50;;;2.00;;
46757;SDS011;32509;47.750;-3.396;2022-09-12T14:55:49;3.15;;;2.03;;
46757;SDS011;32509;47.750;-3.396;2022-09-12T15:01:00;4.25;;;2.30;;
46757;SDS011;32509;47.750;-3.396;2022-09-12T15:03:28;7.63;;;2.42;;
46757;SDS011;32509;47.750;-3.396;2022-09-12T15:05:54;6.10;;;2.03;;
46757;SDS011;32509;47.750;-3.396;2022-09-12T15:08:20;3.08;;;1.75;;
46757;SDS011;32509;47.750;-3.396;2022-09-12T15:10:47;5.30;;;2.00;;
46757;SDS011;32509;47.750;-3.396;2022-09-12T15:13:15;4.97;;;2.10;;
46757;SDS011;32509;47.750;-3.396;2022-09-12T15:15:44;3.88;;;1.83;;
46757;SDS011;32509;47.750;-3.396;2022-09-12T15:18:10;4.07;;;2.00;;
46757;SDS011;32509;47.750;-3.396;2022-09-12T15:20:38;5.93;;;2.58;;
46757;SDS011;32509;47.750;-3.396;2022-09-12T15:23:05;7.75;;;2.10;;
46757;SDS011;32509;47.750;-3.396;2022-09-12T15:25:33;6.35;;;2.60;;
46757;SDS011;32509;47.750;-3.396;2022-09-12T15:27:59;8.23;;;2.20;;
46757;SDS011;32509;47.750;-3.396;2022-09-12T15:30:25;6.10;;;2.33;;
46757;SDS011;32509;47.750;-3.396;2022-09-12T15:32:51;5.28;;;2.60;;
46757;SDS011;32509;47.750;-3.396;2022-09-12T15:35:22;4.32;;;2.50;;
46757;SDS011;32509;47.750;-3.396;2022-09-12T15:37:49;7.40;;;2.42;;
46757;SDS011;32509;47.750;-3.396;2022-09-12T15:40:16;7.15;;;2.50;;
46757;SDS011;32509;47.750;-3.396;2022-09-12T15:42:42;5.13;;;2.22;;
46757;SDS011;32509;47.750;-3.396;2022-09-12T15:45:18;3.75;;;2.15;;
46757;SDS011;32509;47.750;-3.396;2022-09-12T15:47:46;3.47;;;1.80;;
46757;SDS011;32509;47.750;-3.396;2022-09-12T15:50:12;3.47;;;2.40;;
46757;SDS011;32509;47.750;-3.396;2022-09-12T15:52:38;3.92;;;1.90;;
46757;SDS011;32509;47.750;-3.396;2022-09-12T15:55:05;3.90;;;2.35;;
46757;SDS011;32509;47.750;-3.396;2022-09-12T15:57:36;4.53;;;2.15;;
46757;SDS011;32509;47.750;-3.396;2022-09-12T16:00:02;3.38;;;1.63;;
46757;SDS011;32509;47.750;-3.396;2022-09-12T16:02:29;2.53;;;2.15;;
46757;SDS011;32509;47.750;-3.396;2022-09-12T16:04:55;8.90;;;2.13;;
46757;SDS011;32509;47.750;-3.396;2022-09-12T16:07:22;4.65;;;2.03;;
46757;SDS011;32509;47.750;-3.396;2022-09-12T16:09:48;4.10;;;2.83;;
46757;SDS011;32509;47.750;-3.396;2022-09-12T16:12:15;4.60;;;2.42;;
46757;SDS011;32509;47.750;-3.396;2022-09-12T16:14:41;4.90;;;2.53;;
46757;SDS011;32509;47.750;-3.396;2022-09-12T16:17:07;5.72;;;2.53;;
46757;SDS011;32509;47.750;-3.396;2022-09-12T16:19:33;3.58;;;2.28;;
46757;SDS011;32509;47.750;-3.396;2022-09-12T16:21:59;10.25;;;3.00;;
46757;SDS011;32509;47.750;-3.396;2022-09-12T16:24:25;5.15;;;2.85;;
46757;SDS011;32509;47.750;-3.396;2022-09-12T16:26:51;6.18;;;2.83;;
46757;SDS011;32509;47.750;-3.396;2022-09-12T16:29:18;5.72;;;2.70;;
46757;SDS011;32509;47.750;-3.396;2022-09-12T16:31:44;4.80;;;3.13;;
46757;SDS011;32509;47.750;-3.396;2022-09-12T16:34:10;5.78;;;2.75;;
46757;SDS011;32509;47.750;-3.396;2022-09-12T16:36:36;4.75;;;2.55;;
46757;SDS011;32509;47.750;-3.396;2022-09-12T16:39:02;4.68;;;3.25;;
46757;SDS011;32509;47.750;-3.396;2022-09-12T16:41:29;7.28;;;2.60;;
46757;SDS011;32509;47.750;-3.396;2022-09-12T16:43:55;5.63;;;2.88;;
46757;SDS011;32509;47.750;-3.396;2022-09-12T16:46:22;5.55;;;2.67;;
46757;SDS011;32509;47.750;-3.396;2022-09-12T16:48:49;6.13;;;3.05;;
46757;SDS011;32509;47.750;-3.396;2022-09-12T16:51:16;7.97;;;2.90;;
46757;SDS011;32509;47.750;-3.396;2022-09-12T16:53:44;6.70;;;2.35;;
46757;SDS011;32509;47.750;-3.396;2022-09-12T16:56:13;6.47;;;2.50;;
46757;SDS011;32509;47.750;-3.396;2022-09-12T16:58:40;5.65;;;2.85;;
46757;SDS011;32509;47.750;-3.396;2022-09-12T17:03:38;3.35;;;2.42;;
46757;SDS011;32509;47.750;-3.396;2022-09-12T17:08:32;4.00;;;2.47;;
46757;SDS011;32509;47.750;-3.396;2022-09-12T17:11:02;9.18;;;2.78;;
46757;SDS011;32509;47.750;-3.396;2022-09-12T17:13:29;4.75;;;2.50;;
46757;SDS011;32509;47.750;-3.396;2022-09-12T17:15:55;5.18;;;2.88;;
46757;SDS011;32509;47.750;-3.396;2022-09-12T17:18:21;4.10;;;2.80;;